Time;durP1;ratioP1;P1;durP2;ratioP2;P2;SDS_P1;SDS_P2;PMS_P1;PMS_P2;Temp;Humidity;BMP_temperature;BMP_pressure;BME280_temperature;BME280_humidity;BME280_pressure;Samples;Min_cycle;Max_cycle;Signal;HPM_P1;HPM_P2
2023/03/02 00:00:25;;;;;;;13.15;7.68;;;;;;;3.24;60.71;100584.13;10293396;28;20465;-76
2023/03/02 00:05:28;;;;;;;11.43;6.60;;;;;;;3.11;59.99;100555.34;10292146;28;20129;-76
2023/03/02 00:10:30;;;;;;;11.05;6.70;;;;;;;3.47;60.07;100592.91;10291506;28;20502;-76
2023/03/02 00:15:31;;;;;;;11.50;6.38;;;;;;;3.45;59.92;100586.09;10292476;28;20050;-76
2023/03/02 00:20:33;;;;;;;11.15;6.57;;;;;;;3.54;60.25;100604.59;10304314;28;20042;-76
2023/03/02 00:25:35;;;;;;;11.43;6.20;;;;;;;3.40;59.54;100591.66;10320851;28;20050;-76
2023/03/02 00:30:37;;;;;;;11.20;6.93;;;;;;;3.38;60.13;100583.06;10291368;28;20043;-77
2023/03/02 00:35:39;;;;;;;11.30;6.30;;;;;;;3.42;59.65;100597.66;10296324;28;20046;-76
2023/03/02 00:40:48;;;;;;;11.10;7.10;;;;;;;3.17;59.93;100547.00;10330794;28;20115;-76
2023/03/02 00:45:49;;;;;;;11.70;6.68;;;;;;;3.14;60.63;100549.00;10318133;28;20039;-76
2023/03/02 00:50:49;;;;;;;10.90;7.32;;;;;;;3.33;60.49;100588.69;10291487;28;20035;-76
2023/03/02 00:55:54;;;;;;;11.45;7.22;;;;;;;2.69;60.23;100480.63;10291670;28;20042;-76
2023/03/02 01:00:55;;;;;;;13.75;8.20;;;;;;;3.38;60.64;100597.06;10291310;28;20541;-76
2023/03/02 01:05:57;;;;;;;13.27;8.10;;;;;;;2.75;60.93;100493.28;10290779;28;20165;-76
2023/03/02 01:11:00;;;;;;;14.13;7.47;;;;;;;3.33;60.91;100579.97;10291235;28;20069;-76
2023/03/02 01:16:02;;;;;;;12.35;7.70;;;;;;;3.41;60.75;100588.09;10290134;28;20035;-76
2023/03/02 01:21:14;;;;;;;12.68;7.78;;;;;;;3.42;61.01;100580.09;10291013;28;20041;-76
2023/03/02 01:26:15;;;;;;;13.77;7.05;;;;;;;3.18;61.59;100546.03;10290286;28;20125;-76
2023/03/02 01:31:16;;;;;;;13.82;7.50;;;;;;;3.30;61.36;100588.06;10288557;28;20521;-76
2023/03/02 01:36:17;;;;;;;12.40;7.65;;;;;;;2.60;61.41;100502.28;10290225;28;20074;-76
2023/03/02 01:41:19;;;;;;;12.30;7.03;;;;;;;3.02;61.19;100574.41;10294830;28;20422;-77
2023/03/02 01:46:26;;;;;;;10.60;7.10;;;;;;;3.27;61.02;100604.88;10296107;28;20082;-76
2023/03/02 01:51:29;;;;;;;10.85;7.03;;;;;;;3.12;61.45;100566.66;10335606;28;20042;-76
2023/03/02 01:56:33;;;;;;;10.10;6.18;;;;;;;3.28;61.27;100592.59;10337148;28;20042;-76
2023/03/02 02:01:36;;;;;;;11.37;6.47;;;;;;;3.35;61.65;100592.03;10336904;28;20137;-76
2023/03/02 02:06:41;;;;;;;10.57;7.05;;;;;;;3.14;61.38;100541.13;10317065;28;20305;-76
2023/03/02 02:11:43;;;;;;;12.18;6.82;;;;;;;3.32;61.47;100568.63;10296068;28;20069;-77
2023/03/02 02:16:43;;;;;;;11.05;6.32;;;;;;;3.45;61.93;100565.91;10296642;28;20132;-76
2023/03/02 02:21:44;;;;;;;14.30;7.35;;;;;;;3.53;62.32;100571.41;10296556;28;20058;-76
2023/03/02 02:26:51;;;;;;;10.40;6.68;;;;;;;3.49;62.32;100569.97;10295642;28;20051;-76
2023/03/02 02:32:01;;;;;;;15.55;8.65;;;;;;;3.27;62.95;100534.00;10295550;28;20038;-76
2023/03/02 02:37:12;;;;;;;24.10;10.25;;;;;;;3.48;62.49;100578.81;10295839;28;20050;-77
2023/03/02 02:42:20;;;;;;;35.42;16.17;;;;;;;2.97;62.71;100493.38;10295305;28;20039;-76
2023/03/02 02:47:21;;;;;;;33.40;13.95;;;;;;;3.42;63.10;100556.47;10294928;28;20038;-76
2023/03/02 02:52:26;;;;;;;29.23;14.60;;;;;;;3.19;62.72;100512.72;10294470;28;20042;-75
2023/03/02 02:57:28;;;;;;;;;;;;;;;3.56;62.81;100563.31;10297041;28;20046;-76
2023/03/02 03:02:34;;;;;;;33.25;17.65;;;;;;;3.38;62.82;100536.66;10308140;28;20495;-76
2023/03/02 03:07:35;;;;;;;27.42;15.00;;;;;;;3.26;63.38;100515.72;10326081;28;20125;-77
2023/03/02 03:12:38;;;;;;;20.98;11.48;;;;;;;3.05;63.54;100469.19;10324400;28;20085;-78
2023/03/02 03:17:39;;;;;;;18.90;11.05;;;;;;;2.96;63.58;100457.59;10327458;28;20046;-77
2023/03/02 03:22:40;;;;;;;14.68;9.52;;;;;;;3.48;63.99;100549.09;10330694;28;20038;-76
2023/03/02 03:27:42;;;;;;;20.95;10.30;;;;;;;2.92;64.12;100478.91;10332788;28;20046;-77
2023/03/02 03:32:42;;;;;;;13.32;8.45;;;;;;;3.09;64.65;100504.72;10315148;28;20065;-74
2023/03/02 03:37:44;;;;;;;11.93;8.50;;;;;;;3.42;64.47;100540.72;10312131;28;20065;-74
2023/03/02 03:42:45;;;;;;;13.57;8.38;;;;;;;3.57;64.43;100559.72;10330158;28;20129;-76
2023/03/02 03:47:46;;;;;;;28.77;11.88;;;;;;;2.96;64.83;100465.47;10297067;28;20057;-75
2023/03/02 03:52:47;;;;;;;16.30;8.25;;;;;;;3.09;65.02;100498.66;10291801;28;20038;-74
2023/03/02 03:57:48;;;;;;;14.85;8.40;;;;;;;3.52;64.86;100577.59;10292803;28;20041;-74
2023/03/02 04:02:49;;;;;;;13.98;8.55;;;;;;;3.59;63.79;100575.34;10291529;28;20376;-77
2023/03/02 04:07:50;;;;;;;19.70;8.70;;;;;;;3.40;64.02;100539.16;10298770;28;20515;-73
2023/03/02 04:12:51;;;;;;;18.50;7.63;;;;;;;3.66;64.50;100577.41;10300202;28;20501;-76
2023/03/02 04:17:52;;;;;;;12.85;7.22;;;;;;;3.60;64.32;100559.47;10292225;28;20046;-78
2023/03/02 04:22:54;;;;;;;11.50;6.82;;;;;;;3.28;64.11;100487.56;10291710;28;20102;-78
2023/03/02 04:27:55;;;;;;;17.15;7.32;;;;;;;3.84;64.22;100562.00;10291508;28;20047;-79
2023/03/02 04:32:56;;;;;;;11.73;6.95;;;;;;;3.86;64.40;100552.22;10291763;28;20144;-77
2023/03/02 04:37:57;;;;;;;14.73;8.02;;;;;;;3.80;64.18;100551.81;10290516;28;20451;-80
2023/03/02 04:42:58;;;;;;;13.07;8.52;;;;;;;3.86;63.18;100562.72;10291165;28;20039;-75
2023/03/02 04:47:59;;;;;;;13.73;8.57;;;;;;;3.67;63.97;100530.94;10290204;28;20462;-81
2023/03/02 04:53:00;;;;;;;12.20;8.05;;;;;;;3.91;63.89;100558.88;10294018;28;20046;-78
2023/03/02 04:58:00;;;;;;;11.52;7.18;;;;;;;4.16;63.72;100573.56;10316507;28;20487;-78
2023/03/02 05:03:02;;;;;;;12.88;7.72;;;;;;;3.72;63.70;100473.63;10332045;28;20372;-78
2023/03/02 05:08:03;;;;;;;11.70;7.18;;;;;;;4.30;64.04;100549.66;10330425;28;20479;-78
2023/03/02 05:13:04;;;;;;;11.82;7.57;;;;;;;4.46;63.55;100544.00;10330252;28;20074;-78
2023/03/02 05:18:07;;;;;;;12.93;8.30;;;;;;;3.83;63.25;100426.31;10338490;28;20053;-78
2023/03/02 05:23:10;;;;;;;14.95;8.55;;;;;;;4.64;62.76;100573.25;10338698;28;20100;-78
2023/03/02 05:28:11;;;;;;;19.67;8.82;;;;;;;3.96;62.32;100462.13;10337725;28;20128;-77
2023/03/02 05:33:12;;;;;;;14.15;8.57;;;;;;;4.69;62.16;100555.28;10337959;28;20050;-78
2023/03/02 05:38:13;;;;;;;17.20;7.85;;;;;;;4.76;61.70;100552.03;10337200;28;20042;-78
2023/03/02 05:43:18;;;;;;;14.00;8.25;;;;;;;4.70;61.13;100541.19;10337815;28;20066;-78
2023/03/02 05:48:19;;;;;;;12.95;7.68;;;;;;;4.69;60.98;100526.34;10337051;28;20070;-78
2023/03/02 05:53:20;;;;;;;11.15;7.32;;;;;;;5.08;60.64;100585.41;10336824;28;20070;-78
2023/03/02 05:58:21;;;;;;;14.88;7.57;;;;;;;4.72;60.72;100499.78;10336501;28;20069;-77
2023/03/02 06:03:21;;;;;;;14.65;8.27;;;;;;;4.88;60.54;100518.63;10335129;28;20076;-78
2023/03/02 06:08:22;;;;;;;12.60;7.75;;;;;;;5.18;60.63;100567.88;10336420;28;20058;-78
2023/03/02 06:13:23;;;;;;;12.15;7.50;;;;;;;4.78;60.39;100502.72;10336558;28;20045;-78
2023/03/02 06:18:23;;;;;;;14.20;6.97;;;;;;;5.16;59.71;100555.81;10336823;28;20054;-77
2023/03/02 06:23:24;;;;;;;14.93;7.10;;;;;;;5.11;59.29;100529.00;10335516;28;20489;-78
2023/03/02 06:28:26;;;;;;;10.73;7.40;;;;;;;5.59;58.93;100578.53;10334087;28;20046;-77
2023/03/02 06:33:26;;;;;;;12.70;7.93;;;;;;;5.14;58.26;100465.56;10336368;28;20042;-77
2023/03/02 06:38:27;;;;;;;12.85;7.20;;;;;;;5.65;58.24;100547.25;10336654;28;20125;-77
2023/03/02 06:43:28;;;;;;;11.63;7.28;;;;;;;6.00;57.74;100588.22;10335271;28;20042;-78
2023/03/02 06:48:28;;;;;;;12.43;7.50;;;;;;;5.81;56.82;100553.84;10335187;28;20046;-78
2023/03/02 06:53:29;;;;;;;13.93;8.02;;;;;;;5.82;57.21;100560.75;10334731;28;20038;-77
2023/03/02 06:58:30;;;;;;;13.15;7.35;;;;;;;5.99;56.63;100591.81;10334232;28;20042;-77
2023/03/02 07:03:31;;;;;;;12.50;7.47;;;;;;;5.31;57.06;100472.03;10334526;28;20043;-77
2023/03/02 07:08:31;;;;;;;14.57;7.75;;;;;;;5.47;56.85;100493.44;10334110;28;20113;-78
2023/03/02 07:13:32;;;;;;;12.05;6.95;;;;;;;5.83;56.67;100554.50;10349711;28;20042;-77
2023/03/02 07:18:33;;;;;;;10.93;7.80;;;;;;;5.41;57.38;100507.16;10333408;28;20529;-77
2023/03/02 07:23:34;;;;;;;12.43;8.02;;;;;;;5.94;56.86;100596.66;10333775;28;20048;-77
2023/03/02 07:28:38;;;;;;;19.17;10.00;;;;;;;6.04;56.68;100596.69;10334233;28;20042;-78
2023/03/02 07:33:39;;;;;;;18.03;10.13;;;;;;;5.97;56.62;100577.09;10334271;28;20510;-77
2023/03/02 07:38:40;;;;;;;16.58;9.98;;;;;;;6.11;56.76;100571.47;10332353;28;20413;-77
2023/03/02 07:43:41;;;;;;;12.32;8.63;;;;;;;6.07;56.71;100555.09;10333481;28;20053;-77
2023/03/02 07:48:41;;;;;;;16.50;9.00;;;;;;;5.98;56.38;100511.03;10333361;28;20050;-77
2023/03/02 07:53:42;;;;;;;29.35;9.25;;;;;;;6.11;56.40;100535.38;10332266;28;20510;-79
2023/03/02 07:58:43;;;;;;;15.35;8.85;;;;;;;6.46;56.68;100583.34;10333393;28;20141;-77
2023/03/02 08:03:44;;;;;;;12.13;8.00;;;;;;;6.59;56.14;100574.22;10332202;28;20070;-77
2023/03/02 08:08:45;;;;;;;18.10;8.13;;;;;;;6.86;56.15;100588.56;10332535;28;20062;-77
2023/03/02 08:13:46;;;;;;;11.82;7.65;;;;;;;6.71;56.26;100580.22;10331931;28;20042;-76
2023/03/02 08:18:47;;;;;;;12.07;8.48;;;;;;;6.45;55.89;100595.72;10332730;28;20042;-76
2023/03/02 08:23:48;;;;;;;10.85;7.45;;;;;;;6.35;56.52;100585.16;10331263;28;20513;-77
2023/03/02 08:28:48;;;;;;;14.23;7.90;;;;;;;6.13;56.41;100549.28;10331686;28;20046;-77
2023/03/02 08:33:49;;;;;;;11.35;7.15;;;;;;;6.25;56.29;100549.13;10331690;28;20038;-77
2023/03/02 08:38:50;;;;;;;17.20;8.40;;;;;;;6.67;56.01;100577.97;10331863;28;20101;-77
2023/03/02 08:43:54;;;;;;;14.23;8.27;;;;;;;6.86;55.47;100586.75;10331941;28;20050;-76
2023/03/02 08:48:55;;;;;;;12.47;8.53;;;;;;;7.14;55.61;100564.94;10331458;28;20474;-77
2023/03/02 08:53:55;;;;;;;15.00;8.93;;;;;;;6.98;54.91;100512.69;10339004;28;20078;-77
2023/03/02 08:58:59;;;;;;;26.65;9.23;;;;;;;7.11;55.36;100576.59;10339430;28;20034;-77
2023/03/02 09:04:01;;;;;;;12.90;7.93;;;;;;;6.42;55.73;100516.00;10339527;28;20065;-77
2023/03/02 09:09:02;;;;;;;14.90;8.95;;;;;;;5.92;55.44;100478.13;10338766;28;20165;-76
2023/03/02 09:14:04;;;;;;;17.38;8.45;;;;;;;6.35;55.75;100573.75;10338280;28;20125;-77
2023/03/02 09:19:05;;;;;;;12.25;8.07;;;;;;;6.30;55.76;100582.06;10339260;28;20114;-78
2023/03/02 09:24:05;;;;;;;13.43;7.80;;;;;;;5.95;56.51;100524.47;10339063;28;20046;-77
2023/03/02 09:29:07;;;;;;;15.65;8.50;;;;;;;6.19;56.85;100579.53;10338259;28;20133;-77
2023/03/02 09:34:08;;;;;;;12.65;7.93;;;;;;;6.06;56.99;100571.03;10336274;28;20039;-77
2023/03/02 09:39:11;;;;;;;16.40;9.13;;;;;;;5.99;57.97;100562.81;10338023;28;20038;-78
2023/03/02 09:44:39;;;;;;;20.42;10.77;;;;;;;6.07;58.91;100578.81;10338006;28;20043;-78
2023/03/02 09:50:08;;;;;;;21.50;10.85;;;;;;;5.40;58.74;100502.84;10336413;28;20042;-77
2023/03/02 09:55:14;;;;;;;22.60;10.73;;;;;;;5.75;59.24;100584.19;10336177;28;20042;-76
2023/03/02 10:00:22;;;;;;;18.30;11.70;;;;;;;5.23;59.49;100509.53;10334978;28;20570;-77
2023/03/02 10:05:31;;;;;;;16.95;10.38;;;;;;;5.53;60.81;100584.31;10336702;28;20064;-77
2023/03/02 10:10:42;;;;;;;18.70;12.25;;;;;;;4.50;60.75;100435.75;10335474;28;20132;-79
2023/03/02 10:16:01;;;;;;;24.83;13.65;;;;;;;5.46;60.93;100582.22;10335852;28;20402;-78
2023/03/02 10:21:20;;;;;;;19.90;12.90;;;;;;;5.43;61.92;100582.47;10336689;28;20043;-78
2023/03/02 10:26:37;;;;;;;20.23;13.75;;;;;;;5.43;61.44;100584.28;10335904;28;20038;-78
2023/03/02 10:31:39;;;;;;;23.13;14.27;;;;;;;5.53;61.78;100592.22;10336068;28;20108;-78
2023/03/02 10:36:43;;;;;;;26.70;15.65;;;;;;;5.66;61.93;100588.44;10334400;28;20049;-78
2023/03/02 10:41:50;;;;;;;26.98;15.65;;;;;;;5.69;61.69;100569.72;10335600;28;20128;-77
2023/03/02 10:46:52;;;;;;;30.27;14.95;;;;;;;5.59;61.23;100558.28;10334578;28;20406;-77
2023/03/02 10:52:03;;;;;;;18.35;12.02;;;;;;;5.77;61.31;100607.75;10334642;28;20044;-77
2023/03/02 10:57:24;;;;;;;23.55;14.07;;;;;;;5.57;61.58;100609.47;10335048;28;20112;-78
2023/03/02 11:02:28;;;;;;;30.55;15.52;;;;;;;5.51;61.58;100623.16;10334088;28;20046;-77
2023/03/02 11:07:28;;;;;;;23.42;13.85;;;;;;;5.16;61.44;100590.88;10333911;28;20144;-78
2023/03/02 11:12:31;;;;;;;19.73;11.60;;;;;;;5.40;61.12;100651.22;10334387;28;20044;-77
2023/03/02 11:17:36;;;;;;;21.75;12.02;;;;;;;5.06;60.05;100578.63;10334146;28;20514;-75
2023/03/02 11:22:52;;;;;;;21.60;13.02;;;;;;;5.55;59.75;100664.09;10333962;28;20129;-76
2023/03/02 11:28:00;;;;;;;21.73;13.60;;;;;;;5.30;59.48;100623.16;10333766;28;20057;-77
2023/03/02 11:33:11;;;;;;;19.65;12.02;;;;;;;4.91;58.30;100576.28;10333041;28;20093;-75
2023/03/02 11:38:25;;;;;;;23.60;12.00;;;;;;;5.48;58.58;100683.06;10333353;28;20141;-75
2023/03/02 11:43:26;;;;;;;31.25;14.80;;;;;;;4.95;58.83;100605.81;10331275;28;20086;-75
2023/03/02 11:48:41;;;;;;;19.98;12.30;;;;;;;5.25;59.54;100678.84;10332936;28;20088;-76
2023/03/02 11:53:56;;;;;;;33.43;15.67;;;;;;;5.44;59.55;100697.44;10331858;28;20042;-77
2023/03/02 11:59:03;;;;;;;29.10;15.52;;;;;;;4.74;60.69;100603.97;10332769;28;20046;-77
2023/03/02 12:04:22;;;;;;;24.48;13.73;;;;;;;5.17;60.99;100699.69;10332775;28;20093;-77
2023/03/02 12:09:23;;;;;;;25.38;14.05;;;;;;;5.19;61.72;100727.56;10332874;28;20517;-77
2023/03/02 12:14:39;;;;;;;26.50;15.45;;;;;;;4.74;62.00;100642.59;10332055;28;20050;-77
2023/03/02 12:19:43;;;;;;;33.67;16.98;;;;;;;5.15;61.95;100741.13;10332033;28;20410;-77
2023/03/02 12:24:44;;;;;;;30.65;15.50;;;;;;;5.06;62.07;100736.59;10330731;28;20121;-76
2023/03/02 12:29:50;;;;;;;27.23;14.23;;;;;;;4.60;61.14;100672.63;10332397;28;20105;-77
2023/03/02 12:35:02;;;;;;;21.23;14.05;;;;;;;4.81;61.93;100712.19;10330624;28;20048;-79
2023/03/02 12:40:29;;;;;;;22.33;14.02;;;;;;;5.09;61.36;100744.25;10331528;28;20040;-80
2023/03/02 12:46:00;;;;;;;27.85;15.60;;;;;;;5.06;62.69;100778.72;10300059;28;20058;-80
2023/03/02 12:51:03;;;;;;;20.95;13.93;;;;;;;4.70;62.88;100768.34;10325447;28;20054;-83
2023/03/02 12:56:06;;;;;;;20.40;13.43;;;;;;;4.47;62.99;100753.50;10290733;28;20070;-81
2023/03/02 13:01:20;;;;;;;34.15;16.65;;;;;;;4.05;63.96;100716.38;10291929;28;20290;-78
2023/03/02 13:06:25;;;;;;;18.65;12.52;;;;;;;4.28;63.87;100773.31;10317434;28;20050;-80
2023/03/02 13:11:36;;;;;;;36.45;20.88;;;;;;;4.44;64.02;100799.28;10330815;28;20086;-76
2023/03/02 13:16:36;;;;;;;32.45;18.27;;;;;;;3.88;63.26;100751.81;10331182;28;20089;-76
2023/03/02 13:21:38;;;;;;;34.92;16.85;;;;;;;3.20;63.85;100688.53;10331350;28;20046;-77
2023/03/02 13:26:39;;;;;;;28.65;14.30;;;;;;;3.99;63.38;100827.25;10330326;28;20124;-81
2023/03/02 13:31:40;;;;;;;23.95;13.63;;;;;;;3.93;63.64;100830.34;10330311;28;20415;-77
2023/03/02 13:36:40;;;;;;;27.05;14.27;;;;;;;2.93;63.15;100680.00;10290049;28;20113;-80
2023/03/02 13:41:55;;;;;;;24.17;13.32;;;;;;;3.57;63.40;100797.94;10286041;28;20102;-80
2023/03/02 13:46:57;;;;;;;28.77;15.20;;;;;;;3.83;63.31;100870.44;10271748;28;20077;-79
2023/03/02 13:52:05;;;;;;;19.17;11.52;;;;;;;3.78;63.63;100848.06;10273170;28;20047;-78
2023/03/02 13:57:06;;;;;;;43.00;19.35;;;;;;;2.87;63.36;100732.94;10288241;28;20074;-78
2023/03/02 14:02:39;;;;;;;20.02;12.18;;;;;;;3.85;63.60;100896.59;10285034;28;20026;-78
2023/03/02 14:07:40;;;;;;;20.45;12.35;;;;;;;3.30;63.11;100825.22;10262305;28;20500;-78
2023/03/02 14:12:47;;;;;;;21.55;12.75;;;;;;;3.56;62.78;100899.53;10270126;28;20110;-78
2023/03/02 14:17:48;;;;;;;23.17;11.27;;;;;;;3.10;62.78;100810.03;10287759;28;20049;-79
2023/03/02 14:22:49;;;;;;;18.40;9.60;;;;;;;3.02;63.47;100809.75;10295091;28;20065;-78
2023/03/02 14:27:50;;;;;;;18.88;10.13;;;;;;;3.30;63.52;100869.03;10276394;28;20047;-77
2023/03/02 14:32:51;;;;;;;16.83;11.93;;;;;;;3.16;63.42;100867.38;10268762;28;20050;-77
2023/03/02 14:37:52;;;;;;;20.25;9.38;;;;;;;3.46;64.08;100916.06;10284431;28;20034;-78
2023/03/02 14:42:53;;;;;;;19.92;10.65;;;;;;;3.38;64.20;100927.09;10271239;28;20039;-77
2023/03/02 14:47:54;;;;;;;30.52;13.82;;;;;;;2.19;64.35;100744.66;10281655;28;20377;-77
2023/03/02 14:52:56;;;;;;;31.10;11.75;;;;;;;3.24;64.76;100932.47;10267253;28;20050;-78
2023/03/02 14:57:59;;;;;;;21.65;12.55;;;;;;;3.17;65.06;100930.28;10315296;28;20045;-78
2023/03/02 15:03:00;;;;;;;11.43;7.82;;;;;;;3.18;65.18;100936.38;10294604;28;20034;-78
2023/03/02 15:08:00;;;;;;;10.25;7.20;;;;;;;2.82;65.78;100914.31;10293836;28;20058;-78
2023/03/02 15:13:01;;;;;;;10.80;6.88;;;;;;;2.92;65.71;100964.38;10293402;28;20054;-78
2023/03/02 15:18:02;;;;;;;28.05;12.85;;;;;;;2.74;66.11;100948.94;10292006;28;20049;-77
2023/03/02 15:23:04;;;;;;;22.58;9.48;;;;;;;2.78;65.91;100961.84;10293387;28;20046;-79
2023/03/02 15:28:04;;;;;;;14.05;8.07;;;;;;;2.64;65.76;100960.16;10292930;28;20051;-78
2023/03/02 15:33:05;;;;;;;14.95;8.13;;;;;;;2.16;65.99;100897.72;10293282;28;20105;-78
2023/03/02 15:38:06;;;;;;;32.00;9.55;;;;;;;2.60;66.44;100990.13;10292817;28;20117;-78
2023/03/02 15:43:07;;;;;;;19.55;9.35;;;;;;;2.22;66.80;100960.25;10292945;28;20050;-78
2023/03/02 15:48:08;;;;;;;17.75;9.38;;;;;;;2.31;67.40;100992.06;10293349;28;20533;-78
2023/03/02 15:53:09;;;;;;;35.03;11.57;;;;;;;2.21;67.39;100997.84;10292340;28;20066;-78
2023/03/02 15:58:09;;;;;;;34.60;19.45;;;;;;;1.40;67.80;100918.31;10291244;28;20046;-79
2023/03/02 16:03:11;;;;;;;54.30;24.73;;;;;;;1.72;68.32;101013.22;10292690;28;20077;-78
2023/03/02 16:08:12;;;;;;;30.75;17.23;;;;;;;1.33;68.75;101006.84;10295881;28;20063;-78
2023/03/02 16:13:14;;;;;;;59.58;32.45;;;;;;;1.18;68.80;101008.63;10297875;28;20047;-78
2023/03/02 16:18:15;;;;;;;52.30;23.88;;;;;;;1.26;69.33;101016.88;10292621;28;20046;-78
2023/03/02 16:23:15;;;;;;;34.40;21.88;;;;;;;0.77;69.85;101017.09;10292666;28;20050;-78
2023/03/02 16:28:17;;;;;;;43.47;25.85;;;;;;;0.66;71.22;101038.66;10292152;28;20410;-77
2023/03/02 16:33:18;;;;;;;36.42;22.13;;;;;;;0.39;71.11;101004.47;10291066;28;20125;-77
2023/03/02 16:38:19;;;;;;;41.90;20.05;;;;;;;-0.30;70.92;100922.09;10298958;28;20131;-77
2023/03/02 16:43:21;;;;;;;37.05;19.50;;;;;;;0.03;70.86;101002.13;10282734;28;20068;-77
2023/03/02 16:48:22;;;;;;;27.77;16.65;;;;;;;0.20;71.86;101033.38;10268343;28;20137;-77
2023/03/02 16:53:23;;;;;;;156.48;53.40;;;;;;;0.09;72.51;101046.22;10279942;28;20035;-78
2023/03/02 16:58:24;;;;;;;109.97;41.45;;;;;;;0.01;72.43;101037.09;10268243;28;20038;-78
2023/03/02 17:03:25;;;;;;;58.33;18.15;;;;;;;0.08;72.64;101033.22;10313481;28;20081;-78
2023/03/02 17:08:26;;;;;;;43.38;13.20;;;;;;;-0.73;72.36;100872.22;10331431;28;20062;-79
2023/03/02 17:13:27;;;;;;;27.98;12.85;;;;;;;0.40;72.32;101045.34;10326430;28;20499;-78
2023/03/02 17:18:28;;;;;;;42.28;16.80;;;;;;;0.37;72.36;101042.06;10280348;28;20049;-78
2023/03/02 17:23:30;;;;;;;29.85;14.27;;;;;;;0.19;71.99;101047.38;10273077;28;20066;-79
2023/03/02 17:28:31;;;;;;;22.33;11.05;;;;;;;-0.19;71.68;101038.16;10278673;28;20048;-78
2023/03/02 17:33:32;;;;;;;17.40;10.52;;;;;;;-0.96;72.66;100946.50;10293177;28;20039;-77
2023/03/02 17:38:35;;;;;;;35.22;17.45;;;;;;;-0.34;72.88;101060.69;10275520;28;20050;-78
2023/03/02 17:43:37;;;;;;;19.75;10.23;;;;;;;-1.01;73.44;100960.69;10313369;28;20105;-78
2023/03/02 17:48:40;;;;;;;18.77;9.05;;;;;;;-0.49;73.77;101062.34;10282406;28;20129;-77
2023/03/02 17:53:45;;;;;;;16.77;8.90;;;;;;;-1.11;73.46;100981.16;10293460;28;20039;-77
2023/03/02 17:58:50;;;;;;;12.90;7.78;;;;;;;-0.76;73.69;101073.28;10308551;28;20042;-78
2023/03/02 18:03:51;;;;;;;14.60;7.70;;;;;;;-0.74;73.45;101081.03;10296558;28;20042;-78
2023/03/02 18:08:53;;;;;;;12.10;7.10;;;;;;;-0.82;73.23;101104.88;10296687;28;20062;-77
2023/03/02 18:13:54;;;;;;;54.33;21.35;;;;;;;-1.75;73.80;100974.75;10295521;28;20085;-78
2023/03/02 18:18:56;;;;;;;18.40;10.73;;;;;;;-1.92;74.65;100946.06;10294245;28;20101;-79
2023/03/02 18:23:57;;;;;;;31.73;15.23;;;;;;;-1.09;74.74;101090.59;10317645;28;20047;-78
2023/03/02 18:28:57;;;;;;;27.02;13.10;;;;;;;-2.33;73.67;100949.72;10295788;28;20562;-78
2023/03/02 18:34:02;;;;;;;28.63;15.10;;;;;;;-1.32;75.26;101115.16;10294442;28;20093;-78
2023/03/02 18:39:03;;;;;;;25.10;11.95;;;;;;;-1.32;75.03;101089.09;10295936;28;20045;-78
2023/03/02 18:44:04;;;;;;;21.50;11.57;;;;;;;-1.58;74.37;101075.56;10305609;28;20046;-80
2023/03/02 18:49:05;;;;;;;17.98;10.25;;;;;;;-2.46;74.59;100987.59;10294496;28;20093;-79
2023/03/02 18:54:06;;;;;;;19.08;10.05;;;;;;;-1.68;75.27;101093.38;10298368;28;20126;-79
2023/03/02 18:59:08;;;;;;;30.48;14.35;;;;;;;-1.64;75.37;101088.88;10294464;28;20455;-79
2023/03/02 19:04:09;;;;;;;14.63;8.98;;;;;;;-1.78;75.13;101115.56;10306887;28;20392;-79
2023/03/02 19:09:10;;;;;;;17.58;9.88;;;;;;;-1.90;75.52;101114.34;10325656;28;20062;-78
2023/03/02 19:14:10;;;;;;;18.90;9.85;;;;;;;-1.98;76.15;101080.00;10334726;28;20506;-79
2023/03/02 19:19:11;;;;;;;23.77;9.63;;;;;;;-2.13;75.96;101059.88;10334141;28;20065;-78
2023/03/02 19:24:12;;;;;;;13.45;8.57;;;;;;;-2.11;75.94;101103.13;10332015;28;20495;-78
2023/03/02 19:29:13;;;;;;;19.13;9.70;;;;;;;-2.21;76.42;101069.81;10334110;28;20046;-79
2023/03/02 19:34:14;;;;;;;45.10;16.40;;;;;;;-2.08;76.84;101082.19;10333793;28;20376;-79
2023/03/02 19:39:15;;;;;;;33.25;12.02;;;;;;;-2.20;76.73;101074.91;10334150;28;20042;-79
2023/03/02 19:44:15;;;;;;;18.17;11.57;;;;;;;-2.65;76.48;101004.97;10333029;28;20053;-80
2023/03/02 19:49:16;;;;;;;27.75;12.82;;;;;;;-2.26;76.75;101069.16;10333403;28;20498;-79
2023/03/02 19:54:17;;;;;;;25.95;12.27;;;;;;;-2.27;76.97;101093.47;10334313;28;20042;-78
2023/03/02 19:59:20;;;;;;;39.70;19.63;;;;;;;-2.42;76.69;101072.44;10332233;28;20515;-78
2023/03/02 20:04:21;;;;;;;41.90;17.55;;;;;;;-2.37;77.44;101052.25;10333422;28;20042;-78
2023/03/02 20:09:23;;;;;;;32.20;15.43;;;;;;;-3.30;76.91;100911.56;10333091;28;20141;-79
2023/03/02 20:14:23;;;;;;;28.65;15.55;;;;;;;-2.30;76.76;101084.06;10333114;28;20042;-78
2023/03/02 20:19:24;;;;;;;35.17;18.48;;;;;;;-2.39;77.32;101041.06;10331820;28;20124;-77
2023/03/02 20:24:25;;;;;;;37.35;20.10;;;;;;;-2.24;77.47;101056.91;10332214;28;20074;-77
2023/03/02 20:29:26;;;;;;;40.58;21.58;;;;;;;-2.12;76.65;101087.59;10332253;28;20051;-77
2023/03/02 20:34:28;;;;;;;42.70;23.65;;;;;;;-1.99;77.74;101078.31;10331547;28;20141;-78
2023/03/02 20:39:33;;;;;;;74.97;37.80;;;;;;;-2.38;78.09;100980.31;10332306;28;20410;-78
2023/03/02 20:44:34;;;;;;;69.20;35.38;;;;;;;-1.74;77.51;101080.63;10331268;28;20042;-78
2023/03/02 20:49:36;;;;;;;67.30;31.65;;;;;;;-1.69;77.14;101083.88;10340113;28;20167;-78
2023/03/02 20:54:40;;;;;;;58.42;30.98;;;;;;;-1.57;77.98;101058.16;10333334;28;20039;-79
2023/03/02 20:59:43;;;;;;;59.85;29.85;;;;;;;-1.63;77.63;101065.34;10305544;28;20046;-78
2023/03/02 21:04:44;;;;;;;59.63;26.77;;;;;;;-2.09;76.85;101002.41;10299608;28;20054;-79
2023/03/02 21:09:45;;;;;;;45.50;22.42;;;;;;;-2.50;76.87;100954.84;10298372;28;20062;-80
2023/03/02 21:14:46;;;;;;;45.20;24.67;;;;;;;-2.03;77.31;101024.72;10299050;28;20051;-78
2023/03/02 21:19:47;;;;;;;48.88;24.45;;;;;;;-2.55;77.73;100956.81;10299010;28;20590;-78
2023/03/02 21:24:48;;;;;;;43.55;23.38;;;;;;;-2.44;77.98;101009.19;10297797;28;20098;-78
2023/03/02 21:29:48;;;;;;;40.60;20.75;;;;;;;-2.79;78.04;100946.59;10297738;28;20071;-78
2023/03/02 21:34:49;;;;;;;27.10;15.32;;;;;;;-2.27;78.30;101046.63;10297882;28;20150;-78
2023/03/02 21:39:50;;;;;;;29.65;15.15;;;;;;;-2.33;78.53;101039.97;10297674;28;20046;-79
2023/03/02 21:44:51;;;;;;;28.90;15.55;;;;;;;-3.00;78.32;100969.16;10298092;28;20105;-78
2023/03/02 21:49:51;;;;;;;19.25;11.18;;;;;;;-2.71;78.24;101062.44;10296886;28;20042;-78
2023/03/02 21:54:53;;;;;;;20.65;11.68;;;;;;;-3.04;78.10;100987.56;10316240;28;20491;-78
2023/03/02 21:59:54;;;;;;;17.15;9.63;;;;;;;-2.79;78.38;101050.59;10313292;28;20042;-77
2023/03/02 22:04:54;;;;;;;16.45;9.48;;;;;;;-2.97;78.07;101007.19;10337132;28;20517;-78
2023/03/02 22:09:55;;;;;;;15.85;8.35;;;;;;;-3.27;78.42;100953.00;10324026;28;20068;-78
2023/03/02 22:14:59;;;;;;;38.42;10.30;;;;;;;-2.86;78.98;101019.75;10297059;28;20054;-78
2023/03/02 22:19:59;;;;;;;16.70;9.60;;;;;;;-2.50;79.20;101037.25;10297060;28;20042;-78
2023/03/02 22:25:01;;;;;;;17.75;9.05;;;;;;;-2.52;78.89;101056.34;10302339;28;20038;-78
2023/03/02 22:30:15;;;;;;;17.48;8.88;;;;;;;-2.54;79.84;101068.59;10336074;28;20092;-78
2023/03/02 22:35:25;;;;;;;18.02;10.68;;;;;;;-2.45;80.19;101038.75;10308531;28;20066;-78
2023/03/02 22:40:31;;;;;;;15.70;10.40;;;;;;;-2.27;80.51;101064.84;10336432;28;20042;-78
2023/03/02 22:45:33;;;;;;;62.05;19.73;;;;;;;-2.26;79.83;101056.97;10299403;28;20522;-78
2023/03/02 22:50:36;;;;;;;44.70;20.60;;;;;;;-2.69;79.61;100965.25;10301449;28;20533;-78
2023/03/02 22:55:41;;;;;;;48.80;18.60;;;;;;;-2.55;79.84;100975.00;10335330;28;20092;-78
2023/03/02 23:00:41;;;;;;;30.80;16.25;;;;;;;-2.21;79.76;101041.16;10335151;28;20085;-78